sensor_id;sensor_type;location;lat;lon;timestamp;P1;durP1;ratioP1;P2;durP2;ratioP2
69317;SDS011;56457;52.190;4.440;2022-09-17T00:00:49;33.20;;;5.28;;
69317;SDS011;56457;52.190;4.440;2022-09-17T00:23:58;39.08;;;5.20;;
69317;SDS011;56457;52.190;4.440;2022-09-17T00:25:00;30.83;;;4.93;;
69317;SDS011;56457;52.190;4.440;2022-09-17T00:26:03;33.70;;;5.00;;
69317;SDS011;56457;52.190;4.440;2022-09-17T00:27:05;34.95;;;5.53;;
69317;SDS011;56457;52.190;4.440;2022-09-17T00:28:05;32.13;;;4.90;;
69317;SDS011;56457;52.190;4.440;2022-09-17T00:29:06;24.73;;;4.45;;
69317;SDS011;56457;52.190;4.440;2022-09-17T00:30:07;39.80;;;5.85;;
69317;SDS011;56457;52.190;4.440;2022-09-17T00:31:08;30.92;;;5.38;;
69317;SDS011;56457;52.190;4.440;2022-09-17T00:32:09;29.38;;;4.80;;
69317;SDS011;56457;52.190;4.440;2022-09-17T00:33:10;36.10;;;5.28;;
69317;SDS011;56457;52.190;4.440;2022-09-17T00:34:12;36.65;;;5.38;;
69317;SDS011;56457;52.190;4.440;2022-09-17T00:35:12;40.00;;;5.17;;
69317;SDS011;56457;52.190;4.440;2022-09-17T00:36:14;40.72;;;5.60;;
69317;SDS011;56457;52.190;4.440;2022-09-17T00:37:15;41.75;;;5.20;;
69317;SDS011;56457;52.190;4.440;2022-09-17T00:38:15;34.80;;;5.10;;
69317;SDS011;56457;52.190;4.440;2022-09-17T00:39:16;32.10;;;4.97;;
69317;SDS011;56457;52.190;4.440;2022-09-17T00:40:21;33.83;;;4.82;;
69317;SDS011;56457;52.190;4.440;2022-09-17T00:41:22;46.47;;;5.28;;
69317;SDS011;56457;52.190;4.440;2022-09-17T00:42:25;41.38;;;5.38;;
69317;SDS011;56457;52.190;4.440;2022-09-17T00:43:38;31.60;;;4.50;;
69317;SDS011;56457;52.190;4.440;2022-09-17T00:44:42;27.88;;;4.35;;
69317;SDS011;56457;52.190;4.440;2022-09-17T00:45:43;23.45;;;3.60;;
69317;SDS011;56457;52.190;4.440;2022-09-17T00:46:44;28.30;;;4.35;;
69317;SDS011;56457;52.190;4.440;2022-09-17T00:47:46;26.05;;;4.28;;
69317;SDS011;56457;52.190;4.440;2022-09-17T00:48:57;30.30;;;5.30;;
69317;SDS011;56457;52.190;4.440;2022-09-17T00:51:24;36.65;;;4.25;;
69317;SDS011;56457;52.190;4.440;2022-09-17T00:52:35;34.17;;;5.65;;
69317;SDS011;56457;52.190;4.440;2022-09-17T00:53:39;40.92;;;5.65;;
69317;SDS011;56457;52.190;4.440;2022-09-17T00:54:43;29.13;;;3.65;;
69317;SDS011;56457;52.190;4.440;2022-09-17T00:55:51;35.55;;;6.20;;
69317;SDS011;56457;52.190;4.440;2022-09-17T00:56:57;36.38;;;5.40;;
69317;SDS011;56457;52.190;4.440;2022-09-17T00:57:58;46.60;;;5.68;;
69317;SDS011;56457;52.190;4.440;2022-09-17T00:59:02;30.60;;;4.53;;
69317;SDS011;56457;52.190;4.440;2022-09-17T01:00:04;37.00;;;5.43;;
69317;SDS011;56457;52.190;4.440;2022-09-17T01:01:08;47.28;;;7.07;;
69317;SDS011;56457;52.190;4.440;2022-09-17T01:02:08;34.80;;;4.73;;
69317;SDS011;56457;52.190;4.440;2022-09-17T01:03:09;31.95;;;5.53;;
69317;SDS011;56457;52.190;4.440;2022-09-17T01:04:17;36.33;;;5.80;;
69317;SDS011;56457;52.190;4.440;2022-09-17T01:05:20;43.53;;;6.57;;
69317;SDS011;56457;52.190;4.440;2022-09-17T01:06:34;37.33;;;5.00;;
69317;SDS011;56457;52.190;4.440;2022-09-17T01:09:04;34.92;;;5.78;;
69317;SDS011;56457;52.190;4.440;2022-09-17T01:10:32;34.05;;;5.38;;
69317;SDS011;56457;52.190;4.440;2022-09-17T01:12:08;37.20;;;5.43;;
69317;SDS011;56457;52.190;4.440;2022-09-17T01:13:30;33.97;;;5.05;;
69317;SDS011;56457;52.190;4.440;2022-09-17T01:27:29;40.47;;;6.15;;
69317;SDS011;56457;52.190;4.440;2022-09-17T01:29:01;39.60;;;6.35;;
69317;SDS011;56457;52.190;4.440;2022-09-17T01:35:46;38.85;;;6.25;;
69317;SDS011;56457;52.190;4.440;2022-09-17T01:36:58;43.80;;;5.80;;
69317;SDS011;56457;52.190;4.440;2022-09-17T01:38:09;43.20;;;6.95;;
69317;SDS011;56457;52.190;4.440;2022-09-17T01:39:20;50.90;;;6.95;;
69317;SDS011;56457;52.190;4.440;2022-09-17T01:40:25;37.47;;;5.47;;
69317;SDS011;56457;52.190;4.440;2022-09-17T01:43:23;31.80;;;5.88;;
69317;SDS011;56457;52.190;4.440;2022-09-17T01:45:32;44.88;;;6.13;;
69317;SDS011;56457;52.190;4.440;2022-09-17T01:48:19;56.88;;;8.40;;
69317;SDS011;56457;52.190;4.440;2022-09-17T01:49:20;48.03;;;6.80;;
69317;SDS011;56457;52.190;4.440;2022-09-17T01:50:28;44.38;;;6.13;;
69317;SDS011;56457;52.190;4.440;2022-09-17T01:51:39;44.30;;;6.38;;
69317;SDS011;56457;52.190;4.440;2022-09-17T01:52:43;46.50;;;6.63;;
69317;SDS011;56457;52.190;4.440;2022-09-17T01:53:54;60.42;;;6.75;;
69317;SDS011;56457;52.190;4.440;2022-09-17T01:55:05;43.55;;;6.68;;
69317;SDS011;56457;52.190;4.440;2022-09-17T01:56:09;56.10;;;6.93;;
69317;SDS011;56457;52.190;4.440;2022-09-17T01:57:24;45.72;;;5.47;;
69317;SDS011;56457;52.190;4.440;2022-09-17T01:58:35;41.22;;;6.40;;
69317;SDS011;56457;52.190;4.440;2022-09-17T01:59:45;52.22;;;7.75;;
69317;SDS011;56457;52.190;4.440;2022-09-17T02:01:11;56.97;;;7.80;;
69317;SDS011;56457;52.190;4.440;2022-09-17T02:02:19;56.83;;;6.95;;
69317;SDS011;56457;52.190;4.440;2022-09-17T02:03:29;39.85;;;5.38;;
69317;SDS011;56457;52.190;4.440;2022-09-17T02:04:39;33.83;;;5.13;;
69317;SDS011;56457;52.190;4.440;2022-09-17T02:05:59;35.47;;;4.68;;
69317;SDS011;56457;52.190;4.440;2022-09-17T02:07:05;33.08;;;4.72;;
69317;SDS011;56457;52.190;4.440;2022-09-17T02:08:14;29.35;;;4.43;;
69317;SDS011;56457;52.190;4.440;2022-09-17T02:09:35;34.25;;;5.75;;
69317;SDS011;56457;52.190;4.440;2022-09-17T02:10:44;34.25;;;4.65;;
69317;SDS011;56457;52.190;4.440;2022-09-17T02:11:50;29.50;;;5.80;;
69317;SDS011;56457;52.190;4.440;2022-09-17T02:12:59;31.10;;;4.63;;
69317;SDS011;56457;52.190;4.440;2022-09-17T02:14:03;36.38;;;5.35;;
69317;SDS011;56457;52.190;4.440;2022-09-17T02:15:13;52.15;;;6.13;;
69317;SDS011;56457;52.190;4.440;2022-09-17T02:16:24;41.00;;;6.20;;
69317;SDS011;56457;52.190;4.440;2022-09-17T02:17:28;44.25;;;5.85;;
69317;SDS011;56457;52.190;4.440;2022-09-17T02:18:39;32.20;;;5.45;;
69317;SDS011;56457;52.190;4.440;2022-09-17T02:20:47;26.20;;;5.28;;
69317;SDS011;56457;52.190;4.440;2022-09-17T02:23:46;28.83;;;5.35;;
69317;SDS011;56457;52.190;4.440;2022-09-17T02:26:18;37.55;;;5.10;;
69317;SDS011;56457;52.190;4.440;2022-09-17T02:27:26;33.08;;;4.88;;
69317;SDS011;56457;52.190;4.440;2022-09-17T02:28:46;19.20;;;3.60;;
69317;SDS011;56457;52.190;4.440;2022-09-17T02:29:50;26.15;;;4.05;;
69317;SDS011;56457;52.190;4.440;2022-09-17T02:30:51;24.08;;;4.10;;
69317;SDS011;56457;52.190;4.440;2022-09-17T02:31:51;21.40;;;4.50;;
69317;SDS011;56457;52.190;4.440;2022-09-17T02:32:52;31.40;;;4.75;;
69317;SDS011;56457;52.190;4.440;2022-09-17T02:33:54;30.92;;;4.95;;
69317;SDS011;56457;52.190;4.440;2022-09-17T02:35:00;32.13;;;5.07;;
69317;SDS011;56457;52.190;4.440;2022-09-17T02:36:01;30.53;;;5.03;;
69317;SDS011;56457;52.190;4.440;2022-09-17T02:37:02;33.97;;;4.90;;
69317;SDS011;56457;52.190;4.440;2022-09-17T02:38:04;34.15;;;5.05;;
69317;SDS011;56457;52.190;4.440;2022-09-17T02:39:05;30.80;;;4.70;;
69317;SDS011;56457;52.190;4.440;2022-09-17T02:40:06;48.05;;;5.85;;
69317;SDS011;56457;52.190;4.440;2022-09-17T02:41:13;39.45;;;5.70;;
69317;SDS011;56457;52.190;4.440;2022-09-17T02:43:57;38.78;;;6.38;;
69317;SDS011;56457;52.190;4.440;2022-09-17T02:45:15;38.80;;;4.97;;
69317;SDS011;56457;52.190;4.440;2022-09-17T02:47:22;39.15;;;6.18;;
69317;SDS011;56457;52.190;4.440;2022-09-17T02:51:43;30.52;;;5.30;;
69317;SDS011;56457;52.190;4.440;2022-09-17T02:54:29;34.33;;;4.82;;
69317;SDS011;56457;52.190;4.440;2022-09-17T02:55:41;24.90;;;4.28;;
69317;SDS011;56457;52.190;4.440;2022-09-17T02:58:04;27.92;;;4.97;;
69317;SDS011;56457;52.190;4.440;2022-09-17T03:00:41;26.13;;;4.05;;
69317;SDS011;56457;52.190;4.440;2022-09-17T03:01:52;34.22;;;4.22;;
69317;SDS011;56457;52.190;4.440;2022-09-17T03:03:05;33.53;;;4.40;;
69317;SDS011;56457;52.190;4.440;2022-09-17T03:04:12;29.02;;;4.57;;
69317;SDS011;56457;52.190;4.440;2022-09-17T03:05:17;35.35;;;5.05;;
69317;SDS011;56457;52.190;4.440;2022-09-17T03:06:19;26.05;;;4.47;;
69317;SDS011;56457;52.190;4.440;2022-09-17T03:07:20;29.52;;;4.13;;
69317;SDS011;56457;52.190;4.440;2022-09-17T03:08:27;27.48;;;4.22;;
69317;SDS011;56457;52.190;4.440;2022-09-17T03:09:29;33.20;;;5.25;;
69317;SDS011;56457;52.190;4.440;2022-09-17T03:10:29;35.90;;;4.90;;
69317;SDS011;56457;52.190;4.440;2022-09-17T03:11:36;42.58;;;6.05;;
69317;SDS011;56457;52.190;4.440;2022-09-17T03:12:37;24.23;;;4.68;;
69317;SDS011;56457;52.190;4.440;2022-09-17T03:13:37;22.15;;;3.50;;
69317;SDS011;56457;52.190;4.440;2022-09-17T03:14:38;38.83;;;5.40;;
69317;SDS011;56457;52.190;4.440;2022-09-17T03:15:39;36.92;;;6.22;;
69317;SDS011;56457;52.190;4.440;2022-09-17T03:16:39;37.55;;;4.90;;
69317;SDS011;56457;52.190;4.440;2022-09-17T03:17:39;45.85;;;5.35;;
69317;SDS011;56457;52.190;4.440;2022-09-17T03:18:40;49.20;;;5.90;;
69317;SDS011;56457;52.190;4.440;2022-09-17T03:19:40;41.33;;;4.73;;
69317;SDS011;56457;52.190;4.440;2022-09-17T03:20:41;27.77;;;4.33;;
69317;SDS011;56457;52.190;4.440;2022-09-17T03:21:41;36.42;;;4.72;;
69317;SDS011;56457;52.190;4.440;2022-09-17T03:22:41;35.15;;;4.43;;
69317;SDS011;56457;52.190;4.440;2022-09-17T03:23:42;42.97;;;4.82;;
69317;SDS011;56457;52.190;4.440;2022-09-17T03:24:42;19.50;;;3.05;;
69317;SDS011;56457;52.190;4.440;2022-09-17T03:25:44;21.63;;;3.57;;
69317;SDS011;56457;52.190;4.440;2022-09-17T03:26:45;16.70;;;3.45;;
69317;SDS011;56457;52.190;4.440;2022-09-17T03:27:46;30.75;;;3.38;;
69317;SDS011;56457;52.190;4.440;2022-09-17T03:28:47;27.05;;;3.47;;
69317;SDS011;56457;52.190;4.440;2022-09-17T03:29:47;22.90;;;3.65;;
69317;SDS011;56457;52.190;4.440;2022-09-17T03:30:48;40.07;;;4.80;;
69317;SDS011;56457;52.190;4.440;2022-09-17T03:31:48;28.85;;;4.32;;
69317;SDS011;56457;52.190;4.440;2022-09-17T03:32:49;24.02;;;3.58;;
69317;SDS011;56457;52.190;4.440;2022-09-17T03:33:49;26.10;;;3.67;;
69317;SDS011;56457;52.190;4.440;2022-09-17T03:34:49;33.57;;;4.27;;
69317;SDS011;56457;52.190;4.440;2022-09-17T03:35:50;29.98;;;3.85;;
69317;SDS011;56457;52.190;4.440;2022-09-17T03:36:50;27.75;;;4.13;;
69317;SDS011;56457;52.190;4.440;2022-09-17T03:37:51;24.07;;;3.93;;
69317;SDS011;56457;52.190;4.440;2022-09-17T03:38:54;21.63;;;4.22;;
69317;SDS011;56457;52.190;4.440;2022-09-17T03:39:56;22.08;;;3.13;;
69317;SDS011;56457;52.190;4.440;2022-09-17T03:40:57;25.08;;;3.95;;
69317;SDS011;56457;52.190;4.440;2022-09-17T03:41:58;40.92;;;4.43;;
69317;SDS011;56457;52.190;4.440;2022-09-17T03:42:59;28.20;;;3.87;;
69317;SDS011;56457;52.190;4.440;2022-09-17T03:43:59;24.52;;;3.20;;
69317;SDS011;56457;52.190;4.440;2022-09-17T03:45:00;27.08;;;4.05;;
69317;SDS011;56457;52.190;4.440;2022-09-17T03:46:00;27.33;;;3.95;;
69317;SDS011;56457;52.190;4.440;2022-09-17T03:47:00;33.55;;;3.58;;
69317;SDS011;56457;52.190;4.440;2022-09-17T03:48:01;23.57;;;3.40;;
69317;SDS011;56457;52.190;4.440;2022-09-17T03:49:01;18.93;;;3.33;;
69317;SDS011;56457;52.190;4.440;2022-09-17T03:50:02;20.95;;;2.95;;
69317;SDS011;56457;52.190;4.440;2022-09-17T03:51:04;23.35;;;3.50;;
69317;SDS011;56457;52.190;4.440;2022-09-17T03:52:05;22.30;;;3.85;;
69317;SDS011;56457;52.190;4.440;2022-09-17T03:53:05;21.40;;;3.77;;
69317;SDS011;56457;52.190;4.440;2022-09-17T03:54:05;16.77;;;3.08;;
69317;SDS011;56457;52.190;4.440;2022-09-17T03:55:06;18.98;;;3.03;;
69317;SDS011;56457;52.190;4.440;2022-09-17T03:56:07;34.63;;;3.45;;
69317;SDS011;56457;52.190;4.440;2022-09-17T03:57:08;13.57;;;2.20;;
69317;SDS011;56457;52.190;4.440;2022-09-17T03:58:08;16.95;;;3.30;;
69317;SDS011;56457;52.190;4.440;2022-09-17T03:59:09;16.90;;;2.58;;
69317;SDS011;56457;52.190;4.440;2022-09-17T04:00:09;17.70;;;2.70;;
69317;SDS011;56457;52.190;4.440;2022-09-17T04:01:11;25.40;;;2.90;;
69317;SDS011;56457;52.190;4.440;2022-09-17T04:02:12;26.55;;;3.33;;
69317;SDS011;56457;52.190;4.440;2022-09-17T04:03:12;22.90;;;3.45;;
69317;SDS011;56457;52.190;4.440;2022-09-17T04:04:13;23.33;;;4.23;;
69317;SDS011;56457;52.190;4.440;2022-09-17T04:05:13;28.63;;;4.23;;
69317;SDS011;56457;52.190;4.440;2022-09-17T04:06:14;26.88;;;3.55;;
69317;SDS011;56457;52.190;4.440;2022-09-17T04:07:14;28.88;;;3.67;;
69317;SDS011;56457;52.190;4.440;2022-09-17T04:08:15;29.20;;;3.73;;
69317;SDS011;56457;52.190;4.440;2022-09-17T04:09:15;24.50;;;2.78;;
69317;SDS011;56457;52.190;4.440;2022-09-17T04:10:16;17.55;;;2.75;;
69317;SDS011;56457;52.190;4.440;2022-09-17T04:11:16;21.03;;;2.97;;
69317;SDS011;56457;52.190;4.440;2022-09-17T04:12:17;21.00;;;3.00;;
69317;SDS011;56457;52.190;4.440;2022-09-17T04:13:17;23.50;;;2.73;;
69317;SDS011;56457;52.190;4.440;2022-09-17T04:14:18;20.92;;;3.72;;
69317;SDS011;56457;52.190;4.440;2022-09-17T04:15:19;23.67;;;3.20;;
69317;SDS011;56457;52.190;4.440;2022-09-17T04:16:19;29.95;;;3.17;;
69317;SDS011;56457;52.190;4.440;2022-09-17T04:17:19;22.48;;;3.40;;
69317;SDS011;56457;52.190;4.440;2022-09-17T04:18:20;24.53;;;4.03;;
69317;SDS011;56457;52.190;4.440;2022-09-17T04:19:20;31.13;;;4.40;;
69317;SDS011;56457;52.190;4.440;2022-09-17T04:20:21;31.10;;;3.70;;
69317;SDS011;56457;52.190;4.440;2022-09-17T04:21:21;20.42;;;3.63;;
69317;SDS011;56457;52.190;4.440;2022-09-17T04:22:22;29.42;;;3.80;;
69317;SDS011;56457;52.190;4.440;2022-09-17T04:23:23;36.63;;;4.82;;
69317;SDS011;56457;52.190;4.440;2022-09-17T04:24:23;37.90;;;4.90;;
69317;SDS011;56457;52.190;4.440;2022-09-17T04:25:24;31.37;;;4.37;;
69317;SDS011;56457;52.190;4.440;2022-09-17T04:26:24;35.70;;;4.30;;
69317;SDS011;56457;52.190;4.440;2022-09-17T04:27:24;23.08;;;4.28;;
69317;SDS011;56457;52.190;4.440;2022-09-17T04:28:25;31.05;;;3.70;;
69317;SDS011;56457;52.190;4.440;2022-09-17T04:29:25;22.25;;;4.18;;
69317;SDS011;56457;52.190;4.440;2022-09-17T04:30:26;23.50;;;3.72;;
69317;SDS011;56457;52.190;4.440;2022-09-17T04:31:27;37.60;;;4.18;;
69317;SDS011;56457;52.190;4.440;2022-09-17T04:32:27;23.23;;;3.50;;
69317;SDS011;56457;52.190;4.440;2022-09-17T04:33:27;37.77;;;4.23;;
69317;SDS011;56457;52.190;4.440;2022-09-17T04:34:28;21.08;;;2.65;;
69317;SDS011;56457;52.190;4.440;2022-09-17T04:35:28;27.23;;;4.03;;
69317;SDS011;56457;52.190;4.440;2022-09-17T04:36:29;38.97;;;4.00;;
69317;SDS011;56457;52.190;4.440;2022-09-17T04:37:30;25.05;;;3.53;;
69317;SDS011;56457;52.190;4.440;2022-09-17T04:38:30;26.13;;;3.92;;
69317;SDS011;56457;52.190;4.440;2022-09-17T04:39:32;25.67;;;3.40;;
69317;SDS011;56457;52.190;4.440;2022-09-17T04:40:33;22.77;;;3.58;;
69317;SDS011;56457;52.190;4.440;2022-09-17T04:41:33;37.78;;;4.18;;
69317;SDS011;56457;52.190;4.440;2022-09-17T04:42:33;32.08;;;4.35;;
69317;SDS011;56457;52.190;4.440;2022-09-17T04:43:34;35.65;;;4.70;;
69317;SDS011;56457;52.190;4.440;2022-09-17T04:44:36;33.00;;;4.45;;
69317;SDS011;56457;52.190;4.440;2022-09-17T04:45:36;40.30;;;4.68;;
69317;SDS011;56457;52.190;4.440;2022-09-17T04:46:37;42.67;;;4.53;;
69317;SDS011;56457;52.190;4.440;2022-09-17T04:47:38;43.47;;;4.75;;
69317;SDS011;56457;52.190;4.440;2022-09-17T04:48:38;34.08;;;4.55;;
69317;SDS011;56457;52.190;4.440;2022-09-17T04:49:39;23.20;;;4.07;;
69317;SDS011;56457;52.190;4.440;2022-09-17T04:50:39;22.65;;;3.90;;
69317;SDS011;56457;52.190;4.440;2022-09-17T04:51:40;25.70;;;3.97;;
69317;SDS011;56457;52.190;4.440;2022-09-17T04:52:41;28.03;;;2.93;;
69317;SDS011;56457;52.190;4.440;2022-09-17T04:53:42;23.10;;;3.00;;
69317;SDS011;56457;52.190;4.440;2022-09-17T04:54:43;14.43;;;2.63;;
69317;SDS011;56457;52.190;4.440;2022-09-17T04:55:44;22.13;;;2.53;;
69317;SDS011;56457;52.190;4.440;2022-09-17T04:56:44;29.60;;;3.70;;
69317;SDS011;56457;52.190;4.440;2022-09-17T04:57:46;21.07;;;3.27;;
69317;SDS011;56457;52.190;4.440;2022-09-17T04:58:50;32.72;;;4.45;;
69317;SDS011;56457;52.190;4.440;2022-09-17T04:59:50;32.45;;;3.15;;
69317;SDS011;56457;52.190;4.440;2022-09-17T05:00:51;23.10;;;3.65;;
69317;SDS011;56457;52.190;4.440;2022-09-17T05:01:51;17.60;;;2.90;;
69317;SDS011;56457;52.190;4.440;2022-09-17T05:02:53;29.80;;;3.93;;
69317;SDS011;56457;52.190;4.440;2022-09-17T05:03:54;37.03;;;5.05;;
69317;SDS011;56457;52.190;4.440;2022-09-17T05:04:54;40.93;;;4.27;;
69317;SDS011;56457;52.190;4.440;2022-09-17T05:06:56;37.50;;;4.65;;
69317;SDS011;56457;52.190;4.440;2022-09-17T05:07:56;32.78;;;4.47;;
69317;SDS011;56457;52.190;4.440;2022-09-17T05:08:57;31.67;;;4.75;;
69317;SDS011;56457;52.190;4.440;2022-09-17T05:09:57;30.90;;;3.28;;
69317;SDS011;56457;52.190;4.440;2022-09-17T05:10:58;26.73;;;3.17;;
69317;SDS011;56457;52.190;4.440;2022-09-17T05:11:58;23.83;;;3.20;;
69317;SDS011;56457;52.190;4.440;2022-09-17T05:12:59;22.30;;;2.88;;
69317;SDS011;56457;52.190;4.440;2022-09-17T05:13:59;17.25;;;2.92;;
69317;SDS011;56457;52.190;4.440;2022-09-17T05:15:00;14.25;;;2.22;;
69317;SDS011;56457;52.190;4.440;2022-09-17T05:16:00;16.73;;;2.13;;
69317;SDS011;56457;52.190;4.440;2022-09-17T05:17:04;18.55;;;2.33;;
69317;SDS011;56457;52.190;4.440;2022-09-17T05:18:04;22.43;;;2.43;;
69317;SDS011;56457;52.190;4.440;2022-09-17T05:19:05;17.00;;;3.47;;
69317;SDS011;56457;52.190;4.440;2022-09-17T05:20:07;22.85;;;3.00;;
69317;SDS011;56457;52.190;4.440;2022-09-17T05:21:08;26.20;;;3.63;;
69317;SDS011;56457;52.190;4.440;2022-09-17T05:22:08;28.33;;;4.10;;
69317;SDS011;56457;52.190;4.440;2022-09-17T05:23:09;38.33;;;5.10;;
69317;SDS011;56457;52.190;4.440;2022-09-17T05:24:09;37.13;;;4.13;;
69317;SDS011;56457;52.190;4.440;2022-09-17T05:25:10;33.97;;;4.87;;
69317;SDS011;56457;52.190;4.440;2022-09-17T05:26:11;42.58;;;5.32;;
69317;SDS011;56457;52.190;4.440;2022-09-17T05:27:11;37.70;;;5.17;;
69317;SDS011;56457;52.190;4.440;2022-09-17T05:28:12;27.35;;;4.40;;
69317;SDS011;56457;52.190;4.440;2022-09-17T05:29:13;35.42;;;4.97;;
69317;SDS011;56457;52.190;4.440;2022-09-17T05:30:13;39.25;;;5.18;;
69317;SDS011;56457;52.190;4.440;2022-09-17T05:31:13;32.30;;;4.25;;
69317;SDS011;56457;52.190;4.440;2022-09-17T05:32:14;25.48;;;3.67;;
69317;SDS011;56457;52.190;4.440;2022-09-17T05:33:14;31.83;;;3.63;;
69317;SDS011;56457;52.190;4.440;2022-09-17T05:34:15;31.67;;;3.83;;
69317;SDS011;56457;52.190;4.440;2022-09-17T05:35:15;30.07;;;4.27;;
69317;SDS011;56457;52.190;4.440;2022-09-17T05:36:15;41.00;;;4.22;;
69317;SDS011;56457;52.190;4.440;2022-09-17T05:37:16;30.97;;;3.03;;
69317;SDS011;56457;52.190;4.440;2022-09-17T05:38:16;24.27;;;3.67;;
69317;SDS011;56457;52.190;4.440;2022-09-17T05:40:20;25.25;;;3.35;;
69317;SDS011;56457;52.190;4.440;2022-09-17T05:41:20;28.50;;;3.43;;
69317;SDS011;56457;52.190;4.440;2022-09-17T05:42:21;24.40;;;3.33;;
69317;SDS011;56457;52.190;4.440;2022-09-17T05:43:22;21.65;;;3.30;;
69317;SDS011;56457;52.190;4.440;2022-09-17T05:44:23;19.75;;;3.08;;
69317;SDS011;56457;52.190;4.440;2022-09-17T05:45:24;21.05;;;4.30;;
69317;SDS011;56457;52.190;4.440;2022-09-17T05:46:25;15.93;;;3.00;;
69317;SDS011;56457;52.190;4.440;2022-09-17T05:47:25;17.33;;;2.60;;
69317;SDS011;56457;52.190;4.440;2022-09-17T05:48:26;15.80;;;2.20;;
69317;SDS011;56457;52.190;4.440;2022-09-17T05:49:26;21.87;;;3.53;;
69317;SDS011;56457;52.190;4.440;2022-09-17T05:50:27;15.47;;;2.70;;
69317;SDS011;56457;52.190;4.440;2022-09-17T05:51:28;20.38;;;3.20;;
69317;SDS011;56457;52.190;4.440;2022-09-17T05:52:29;21.40;;;3.13;;
69317;SDS011;56457;52.190;4.440;2022-09-17T05:53:29;18.63;;;2.88;;
69317;SDS011;56457;52.190;4.440;2022-09-17T05:54:29;22.80;;;2.90;;
69317;SDS011;56457;52.190;4.440;2022-09-17T05:55:30;39.20;;;3.42;;
69317;SDS011;56457;52.190;4.440;2022-09-17T05:56:31;32.33;;;3.63;;
69317;SDS011;56457;52.190;4.440;2022-09-17T05:57:31;29.33;;;3.30;;
69317;SDS011;56457;52.190;4.440;2022-09-17T05:58:31;27.75;;;3.60;;
69317;SDS011;56457;52.190;4.440;2022-09-17T05:59:33;25.33;;;3.65;;
69317;SDS011;56457;52.190;4.440;2022-09-17T06:00:35;34.85;;;5.00;;
69317;SDS011;56457;52.190;4.440;2022-09-17T06:01:35;34.60;;;3.40;;
69317;SDS011;56457;52.190;4.440;2022-09-17T06:02:36;34.73;;;6.07;;
69317;SDS011;56457;52.190;4.440;2022-09-17T06:03:36;34.15;;;4.45;;
69317;SDS011;56457;52.190;4.440;2022-09-17T06:04:37;31.95;;;4.13;;
69317;SDS011;56457;52.190;4.440;2022-09-17T06:05:37;33.67;;;4.47;;
69317;SDS011;56457;52.190;4.440;2022-09-17T06:06:38;33.55;;;4.53;;
69317;SDS011;56457;52.190;4.440;2022-09-17T06:07:40;32.65;;;4.35;;
69317;SDS011;56457;52.190;4.440;2022-09-17T06:08:41;38.80;;;4.70;;
69317;SDS011;56457;52.190;4.440;2022-09-17T06:09:41;31.65;;;4.40;;
69317;SDS011;56457;52.190;4.440;2022-09-17T06:10:41;35.10;;;4.43;;
69317;SDS011;56457;52.190;4.440;2022-09-17T06:11:42;31.98;;;4.63;;
69317;SDS011;56457;52.190;4.440;2022-09-17T06:12:42;54.75;;;5.10;;
69317;SDS011;56457;52.190;4.440;2022-09-17T06:13:43;26.40;;;4.60;;
69317;SDS011;56457;52.190;4.440;2022-09-17T06:14:43;22.95;;;3.90;;
69317;SDS011;56457;52.190;4.440;2022-09-17T06:15:50;45.47;;;6.05;;
69317;SDS011;56457;52.190;4.440;2022-09-17T06:16:51;29.83;;;5.18;;
69317;SDS011;56457;52.190;4.440;2022-09-17T06:17:52;30.77;;;4.38;;
69317;SDS011;56457;52.190;4.440;2022-09-17T06:18:52;29.95;;;5.43;;
69317;SDS011;56457;52.190;4.440;2022-09-17T06:19:53;41.08;;;4.75;;
69317;SDS011;56457;52.190;4.440;2022-09-17T06:20:55;29.27;;;3.33;;
69317;SDS011;56457;52.190;4.440;2022-09-17T06:21:56;15.07;;;3.10;;
69317;SDS011;56457;52.190;4.440;2022-09-17T06:22:57;29.40;;;4.37;;
69317;SDS011;56457;52.190;4.440;2022-09-17T06:23:59;29.52;;;3.78;;
69317;SDS011;56457;52.190;4.440;2022-09-17T06:24:59;24.25;;;3.85;;
69317;SDS011;56457;52.190;4.440;2022-09-17T06:26:01;32.92;;;5.05;;
69317;SDS011;56457;52.190;4.440;2022-09-17T06:27:03;31.80;;;3.60;;
69317;SDS011;56457;52.190;4.440;2022-09-17T06:28:04;27.58;;;4.07;;
69317;SDS011;56457;52.190;4.440;2022-09-17T06:29:04;21.27;;;3.33;;
69317;SDS011;56457;52.190;4.440;2022-09-17T06:30:05;16.98;;;2.88;;
69317;SDS011;56457;52.190;4.440;2022-09-17T06:32:07;21.40;;;3.10;;
69317;SDS011;56457;52.190;4.440;2022-09-17T06:33:11;27.73;;;3.80;;
69317;SDS011;56457;52.190;4.440;2022-09-17T06:34:12;27.23;;;3.20;;
69317;SDS011;56457;52.190;4.440;2022-09-17T06:35:13;24.73;;;3.55;;
69317;SDS011;56457;52.190;4.440;2022-09-17T06:36:13;26.95;;;3.13;;
69317;SDS011;56457;52.190;4.440;2022-09-17T06:37:14;23.23;;;3.72;;
69317;SDS011;56457;52.190;4.440;2022-09-17T06:38:14;27.30;;;3.53;;
69317;SDS011;56457;52.190;4.440;2022-09-17T06:39:15;28.45;;;3.65;;
69317;SDS011;56457;52.190;4.440;2022-09-17T06:40:15;21.70;;;3.28;;
69317;SDS011;56457;52.190;4.440;2022-09-17T06:41:16;23.20;;;3.45;;
69317;SDS011;56457;52.190;4.440;2022-09-17T06:42:17;29.58;;;4.03;;
69317;SDS011;56457;52.190;4.440;2022-09-17T06:43:17;26.15;;;4.07;;
69317;SDS011;56457;52.190;4.440;2022-09-17T06:44:18;18.83;;;3.53;;
69317;SDS011;56457;52.190;4.440;2022-09-17T06:45:18;22.70;;;3.40;;
69317;SDS011;56457;52.190;4.440;2022-09-17T06:46:19;30.42;;;3.35;;
69317;SDS011;56457;52.190;4.440;2022-09-17T06:47:22;25.35;;;2.85;;
69317;SDS011;56457;52.190;4.440;2022-09-17T06:48:24;27.60;;;5.80;;
69317;SDS011;56457;52.190;4.440;2022-09-17T06:49:26;32.70;;;6.45;;
69317;SDS011;56457;52.190;4.440;2022-09-17T06:51:28;19.63;;;3.63;;
69317;SDS011;56457;52.190;4.440;2022-09-17T06:52:28;25.27;;;3.67;;
69317;SDS011;56457;52.190;4.440;2022-09-17T06:53:29;31.77;;;2.97;;
69317;SDS011;56457;52.190;4.440;2022-09-17T06:54:30;23.88;;;3.88;;
69317;SDS011;56457;52.190;4.440;2022-09-17T06:55:31;26.40;;;3.17;;
69317;SDS011;56457;52.190;4.440;2022-09-17T06:56:31;29.93;;;4.17;;
69317;SDS011;56457;52.190;4.440;2022-09-17T06:57:33;24.73;;;3.45;;
69317;SDS011;56457;52.190;4.440;2022-09-17T06:58:34;22.60;;;3.03;;
69317;SDS011;56457;52.190;4.440;2022-09-17T06:59:40;18.83;;;2.33;;
69317;SDS011;56457;52.190;4.440;2022-09-17T07:01:42;12.73;;;2.00;;
69317;SDS011;56457;52.190;4.440;2022-09-17T07:02:42;15.57;;;1.67;;
69317;SDS011;56457;52.190;4.440;2022-09-17T07:03:43;8.80;;;1.60;;
69317;SDS011;56457;52.190;4.440;2022-09-17T07:04:43;12.35;;;2.17;;
69317;SDS011;56457;52.190;4.440;2022-09-17T07:05:44;11.00;;;1.60;;
69317;SDS011;56457;52.190;4.440;2022-09-17T07:06:45;9.85;;;1.50;;
69317;SDS011;56457;52.190;4.440;2022-09-17T07:07:45;12.40;;;1.65;;
69317;SDS011;56457;52.190;4.440;2022-09-17T07:08:45;13.43;;;1.70;;
69317;SDS011;56457;52.190;4.440;2022-09-17T07:09:46;16.15;;;2.20;;
69317;SDS011;56457;52.190;4.440;2022-09-17T07:10:46;16.50;;;2.13;;
69317;SDS011;56457;52.190;4.440;2022-09-17T07:11:47;18.23;;;2.28;;
69317;SDS011;56457;52.190;4.440;2022-09-17T07:12:47;16.55;;;2.28;;
69317;SDS011;56457;52.190;4.440;2022-09-17T07:13:48;18.25;;;2.47;;
69317;SDS011;56457;52.190;4.440;2022-09-17T07:14:48;11.37;;;1.90;;
69317;SDS011;56457;52.190;4.440;2022-09-17T07:15:56;11.45;;;2.10;;
69317;SDS011;56457;52.190;4.440;2022-09-17T07:16:58;13.52;;;2.25;;
69317;SDS011;56457;52.190;4.440;2022-09-17T07:17:59;12.43;;;2.33;;
69317;SDS011;56457;52.190;4.440;2022-09-17T07:19:02;13.13;;;2.20;;
69317;SDS011;56457;52.190;4.440;2022-09-17T07:20:03;12.68;;;2.22;;
69317;SDS011;56457;52.190;4.440;2022-09-17T07:21:04;16.98;;;2.28;;